createdAt,value
2018-08-09T00:00:06.118Z,18.10
2018-08-09T00:01:09.723Z,18.10
2018-08-09T00:02:14.116Z,18.10
2018-08-09T00:03:17.597Z,18.10
2018-08-09T00:04:22.690Z,18.10
2018-08-09T00:05:26.148Z,18.10
2018-08-09T00:06:29.888Z,18.00
2018-08-09T00:07:33.463Z,18.00
2018-08-09T00:08:36.942Z,18.00
2018-08-09T00:09:40.518Z,17.90
2018-08-09T00:10:43.984Z,17.80
2018-08-09T00:11:47.590Z,17.70
2018-08-09T00:12:51.113Z,17.60
2018-08-09T00:13:54.615Z,17.60
2018-08-09T00:14:58.077Z,17.50
2018-08-09T00:16:01.654Z,17.50
2018-08-09T00:17:05.140Z,17.40
2018-08-09T00:18:08.623Z,17.40
2018-08-09T00:19:12.147Z,17.30
2018-08-09T00:20:15.669Z,17.30
2018-08-09T00:21:19.188Z,17.30
2018-08-09T00:22:22.828Z,17.30
2018-08-09T00:23:27.352Z,17.20
2018-08-09T00:24:31.017Z,17.20
2018-08-09T00:25:34.972Z,17.20
2018-08-09T00:26:38.457Z,17.10
2018-08-09T00:27:41.930Z,17.10
2018-08-09T00:28:45.392Z,17.10
2018-08-09T00:29:48.909Z,17.00
2018-08-09T00:30:52.733Z,17.00
2018-08-09T00:31:56.216Z,17.00
2018-08-09T00:32:59.659Z,16.90
2018-08-09T00:34:03.188Z,16.90
2018-08-09T00:35:06.704Z,16.90
2018-08-09T00:36:10.524Z,16.90
2018-08-09T00:37:13.943Z,16.90
2018-08-09T00:38:17.552Z,16.80
2018-08-09T00:39:21.066Z,16.80
2018-08-09T00:40:24.663Z,16.80
2018-08-09T00:41:28.126Z,16.80
2018-08-09T00:42:31.722Z,16.80
2018-08-09T00:43:36.153Z,16.70
2018-08-09T00:44:39.787Z,16.70
2018-08-09T00:45:43.325Z,16.70
2018-08-09T00:46:46.808Z,16.70
2018-08-09T00:47:50.323Z,16.70
2018-08-09T00:48:54.702Z,16.70
2018-08-09T00:49:58.217Z,16.70
2018-08-09T00:51:01.715Z,16.80
2018-08-09T00:52:05.359Z,16.80
2018-08-09T00:53:08.990Z,16.80
2018-08-09T00:54:12.498Z,16.90
2018-08-09T00:55:15.960Z,17.00
2018-08-09T00:56:20.026Z,17.00
2018-08-09T00:57:23.641Z,17.10
2018-08-09T00:58:27.778Z,17.20
2018-08-09T00:59:31.290Z,17.20
2018-08-09T01:00:34.872Z,17.30
2018-08-09T01:01:38.423Z,17.30
2018-08-09T01:02:41.929Z,17.40
2018-08-09T01:03:46.036Z,17.40
2018-08-09T01:04:49.658Z,17.40
2018-08-09T01:05:53.531Z,17.50
2018-08-09T01:06:58.277Z,17.50
2018-08-09T01:08:01.805Z,17.60
2018-08-09T01:09:08.311Z,17.60
2018-08-09T01:10:12.415Z,17.60
2018-08-09T01:11:15.878Z,17.60
2018-08-09T01:12:19.390Z,17.70
2018-08-09T01:13:23.084Z,17.70
2018-08-09T01:14:27.045Z,17.70
2018-08-09T01:15:30.624Z,17.70
2018-08-09T01:16:34.399Z,17.80
2018-08-09T01:17:38.002Z,17.80
2018-08-09T01:18:42.089Z,17.80
2018-08-09T01:19:46.200Z,17.80
2018-08-09T01:20:49.915Z,17.90
2018-08-09T01:21:53.462Z,17.90
2018-08-09T01:22:56.986Z,17.90
2018-08-09T01:24:00.822Z,17.90
2018-08-09T01:25:04.549Z,18.00
2018-08-09T01:26:08.020Z,18.00
2018-08-09T01:27:11.624Z,18.00
2018-08-09T01:28:15.721Z,18.00
2018-08-09T01:29:19.196Z,18.10
2018-08-09T01:30:23.280Z,18.10
2018-08-09T01:31:35.606Z,18.20
2018-08-09T01:32:39.989Z,18.20
2018-08-09T01:33:43.457Z,18.20
2018-08-09T01:34:47.035Z,18.30
2018-08-09T01:35:50.626Z,18.30
2018-08-09T01:36:54.070Z,18.30
2018-08-09T01:37:57.742Z,18.30
2018-08-09T01:39:01.674Z,18.30
2018-08-09T01:40:05.898Z,18.20
2018-08-09T01:41:09.459Z,18.20
2018-08-09T01:42:24.223Z,18.20
2018-08-09T01:43:39.006Z,18.20
2018-08-09T01:44:43.119Z,18.10
2018-08-09T01:45:46.608Z,18.10
2018-08-09T01:46:50.071Z,18.10
2018-08-09T01:47:53.534Z,18.00
2018-08-09T01:48:57.736Z,18.00
2018-08-09T01:50:01.602Z,18.00
2018-08-09T01:51:05.502Z,17.90
2018-08-09T01:52:09.057Z,17.90
2018-08-09T01:53:12.664Z,17.80
2018-08-09T01:54:16.164Z,17.80
2018-08-09T01:55:19.642Z,17.70
2018-08-09T01:56:23.246Z,17.70
2018-08-09T01:57:26.734Z,17.70
2018-08-09T01:58:30.942Z,17.60
2018-08-09T01:59:34.991Z,17.60
2018-08-09T02:00:38.496Z,17.50
2018-08-09T02:01:41.969Z,17.50
2018-08-09T02:02:45.485Z,17.40
2018-08-09T02:03:49.080Z,17.40
2018-08-09T02:04:52.612Z,17.40
2018-08-09T02:05:56.110Z,17.40
2018-08-09T02:06:59.578Z,17.40
2018-08-09T02:08:03.032Z,17.40
2018-08-09T02:09:08.912Z,17.30
2018-08-09T02:10:12.551Z,17.30
2018-08-09T02:11:16.025Z,17.30
2018-08-09T02:12:19.473Z,17.30
2018-08-09T02:13:23.530Z,17.30
2018-08-09T02:14:27.032Z,17.20
2018-08-09T02:15:30.539Z,17.20
2018-08-09T02:16:34.109Z,17.10
2018-08-09T02:17:37.645Z,17.10
2018-08-09T02:18:41.119Z,17.10
2018-08-09T02:19:45.059Z,17.10
2018-08-09T02:20:48.562Z,17.10
2018-08-09T02:21:52.086Z,17.10
2018-08-09T02:22:55.535Z,17.00
2018-08-09T02:23:59.010Z,17.10
2018-08-09T02:25:02.506Z,17.10
2018-08-09T02:26:06.114Z,17.10
2018-08-09T02:27:10.243Z,17.00
2018-08-09T02:28:13.768Z,17.00
2018-08-09T02:29:17.278Z,17.10
2018-08-09T02:30:20.762Z,17.10
2018-08-09T02:31:24.830Z,17.10
2018-08-09T02:32:28.517Z,17.10
2018-08-09T02:33:31.981Z,17.10
2018-08-09T02:34:35.863Z,17.10
2018-08-09T02:35:39.406Z,17.10
2018-08-09T02:36:42.890Z,17.10
2018-08-09T02:37:47.325Z,17.10
2018-08-09T02:38:50.868Z,17.00
2018-08-09T02:39:54.353Z,17.00
2018-08-09T02:40:57.823Z,17.00
2018-08-09T02:42:06.987Z,17.00
2018-08-09T02:43:10.898Z,17.00
2018-08-09T02:44:14.508Z,17.00
2018-08-09T02:45:18.103Z,16.90
2018-08-09T02:46:21.646Z,16.90
2018-08-09T02:47:25.183Z,16.90
2018-08-09T02:48:28.987Z,16.90
2018-08-09T02:49:32.627Z,16.80
2018-08-09T02:50:36.190Z,16.80
2018-08-09T02:51:39.847Z,16.80
2018-08-09T02:52:43.534Z,16.80
2018-08-09T02:53:47.184Z,16.80
2018-08-09T02:54:51.128Z,16.70
2018-08-09T02:55:54.694Z,16.70
2018-08-09T02:56:58.215Z,16.70
2018-08-09T02:58:01.836Z,16.70
2018-08-09T02:59:05.631Z,16.70
2018-08-09T03:00:09.163Z,16.70
2018-08-09T03:01:12.881Z,16.80
2018-08-09T03:02:16.735Z,16.80
2018-08-09T03:03:20.467Z,16.80
2018-08-09T03:04:24.196Z,16.80
2018-08-09T03:05:27.827Z,16.80
2018-08-09T03:06:31.431Z,16.80
2018-08-09T03:07:34.966Z,16.80
2018-08-09T03:08:38.756Z,16.80
2018-08-09T03:09:42.302Z,16.70
2018-08-09T03:10:45.841Z,16.70
2018-08-09T03:11:49.702Z,16.80
2018-08-09T03:12:53.417Z,16.70
2018-08-09T03:13:57.087Z,16.70
2018-08-09T03:15:01.046Z,16.70
2018-08-09T03:16:04.736Z,16.60
2018-08-09T03:17:08.653Z,16.70
2018-08-09T03:18:13.478Z,16.70
2018-08-09T03:19:16.999Z,16.70
2018-08-09T03:20:20.694Z,16.70
2018-08-09T03:21:24.240Z,16.70
2018-08-09T03:22:27.926Z,16.60
2018-08-09T03:23:31.523Z,16.60
2018-08-09T03:24:35.081Z,16.60
2018-08-09T03:25:38.599Z,16.60
2018-08-09T03:26:42.158Z,16.60
2018-08-09T03:27:45.766Z,16.50
2018-08-09T03:28:49.375Z,16.50
2018-08-09T03:29:53.042Z,16.50
2018-08-09T03:30:56.612Z,16.50
2018-08-09T03:32:00.512Z,16.50
2018-08-09T03:33:04.139Z,16.50
2018-08-09T03:34:07.790Z,16.50
2018-08-09T03:35:11.742Z,16.40
2018-08-09T03:36:15.275Z,16.40
2018-08-09T03:37:18.875Z,16.40
2018-08-09T03:38:22.575Z,16.30
2018-08-09T03:39:26.142Z,16.30
2018-08-09T03:40:29.851Z,16.20
2018-08-09T03:41:33.372Z,16.30
2018-08-09T03:42:36.925Z,16.30
2018-08-09T03:43:40.916Z,16.20
2018-08-09T03:44:44.513Z,16.30
2018-08-09T03:45:48.146Z,16.30
2018-08-09T03:46:51.734Z,16.30
2018-08-09T03:47:55.528Z,16.30
2018-08-09T03:48:59.081Z,16.20
2018-08-09T03:50:02.727Z,16.30
2018-08-09T03:51:06.252Z,16.30
2018-08-09T03:52:10.405Z,16.30
2018-08-09T03:53:14.149Z,16.40
2018-08-09T03:54:17.703Z,16.40
2018-08-09T03:55:21.398Z,16.40
2018-08-09T03:56:24.996Z,16.40
2018-08-09T03:57:44.483Z,16.40
2018-08-09T03:58:49.487Z,16.40
2018-08-09T03:59:53.571Z,16.40
2018-08-09T04:00:57.990Z,16.40
2018-08-09T04:02:01.932Z,16.40
2018-08-09T04:03:05.611Z,16.40
2018-08-09T04:04:09.247Z,16.40
2018-08-09T04:05:13.725Z,16.40
2018-08-09T04:06:17.348Z,16.40
2018-08-09T04:07:20.995Z,16.40
2018-08-09T04:08:24.674Z,16.40
2018-08-09T04:09:28.261Z,16.40
2018-08-09T04:10:31.804Z,16.30
2018-08-09T04:11:35.469Z,16.30
2018-08-09T04:12:39.119Z,16.30
2018-08-09T04:13:42.699Z,16.30
2018-08-09T04:14:46.343Z,16.30
2018-08-09T04:15:50.027Z,16.30
2018-08-09T04:16:53.811Z,16.30
2018-08-09T04:17:57.459Z,16.30
2018-08-09T04:19:01.088Z,16.30
2018-08-09T04:20:05.281Z,16.30
2018-08-09T04:21:11.249Z,16.30
2018-08-09T04:22:15.299Z,16.30
2018-08-09T04:23:18.946Z,16.20
2018-08-09T04:24:22.480Z,16.30
2018-08-09T04:25:26.270Z,16.20
2018-08-09T04:26:30.361Z,16.20
2018-08-09T04:27:33.949Z,16.20
2018-08-09T04:28:37.521Z,16.20
2018-08-09T04:29:41.230Z,16.30
2018-08-09T04:30:44.807Z,16.30
2018-08-09T04:31:48.376Z,16.40
2018-08-09T04:32:52.030Z,16.40
2018-08-09T04:33:55.640Z,16.50
2018-08-09T04:34:59.311Z,16.60
2018-08-09T04:36:02.894Z,16.70
2018-08-09T04:37:06.878Z,16.70
2018-08-09T04:38:10.671Z,16.80
2018-08-09T04:39:14.535Z,16.80
2018-08-09T04:40:18.076Z,16.90
2018-08-09T04:41:21.658Z,16.90
2018-08-09T04:42:25.198Z,16.90
2018-08-09T04:43:29.091Z,17.00
2018-08-09T04:44:32.632Z,16.90
2018-08-09T04:45:36.162Z,17.00
2018-08-09T04:46:39.673Z,17.10
2018-08-09T04:47:43.239Z,17.10
2018-08-09T04:48:46.808Z,17.10
2018-08-09T04:49:50.382Z,17.20
2018-08-09T04:50:53.952Z,17.20
2018-08-09T04:51:58.314Z,17.30
2018-08-09T04:53:02.186Z,17.40
2018-08-09T04:54:05.799Z,17.40
2018-08-09T04:55:09.519Z,17.50
2018-08-09T04:56:13.829Z,17.60
2018-08-09T04:57:17.470Z,17.70
2018-08-09T04:58:21.103Z,17.70
2018-08-09T04:59:24.670Z,17.80
2018-08-09T05:00:28.267Z,18.00
2018-08-09T05:01:31.808Z,18.00
2018-08-09T05:02:35.418Z,18.10
2018-08-09T05:03:39.146Z,18.20
2018-08-09T05:04:42.698Z,18.20
2018-08-09T05:05:46.285Z,18.20
2018-08-09T05:06:49.855Z,18.20
2018-08-09T05:07:53.523Z,18.10
2018-08-09T05:08:57.182Z,18.10
2018-08-09T05:10:05.932Z,18.10
2018-08-09T05:11:09.553Z,18.10
2018-08-09T05:12:13.324Z,18.10
2018-08-09T05:13:16.910Z,18.10
2018-08-09T05:14:20.494Z,18.10
2018-08-09T05:15:24.120Z,18.00
2018-08-09T05:16:27.706Z,18.00
2018-08-09T05:17:31.467Z,18.00
2018-08-09T05:18:35.044Z,18.00
2018-08-09T05:19:38.596Z,18.10
2018-08-09T05:20:42.173Z,18.10
2018-08-09T05:21:45.797Z,18.00
2018-08-09T05:22:49.367Z,18.10
2018-08-09T05:23:52.971Z,18.10
2018-08-09T05:24:56.561Z,18.10
2018-08-09T05:26:00.258Z,18.10
2018-08-09T05:27:03.944Z,18.10
2018-08-09T05:28:08.086Z,18.10
2018-08-09T05:29:12.460Z,18.10
2018-08-09T05:30:16.022Z,18.10
2018-08-09T05:31:19.643Z,18.00
2018-08-09T05:32:23.267Z,18.00
2018-08-09T05:33:26.904Z,18.00
2018-08-09T05:34:30.737Z,18.00
2018-08-09T05:35:34.282Z,18.10
2018-08-09T05:36:37.924Z,18.00
2018-08-09T05:37:41.534Z,18.00
2018-08-09T05:38:45.127Z,18.00
2018-08-09T05:39:48.718Z,18.00
2018-08-09T05:40:52.362Z,17.90
2018-08-09T05:41:55.948Z,17.90
2018-08-09T05:42:59.502Z,17.90
2018-08-09T05:44:03.448Z,17.90
2018-08-09T05:45:07.114Z,17.90
2018-08-09T05:46:10.830Z,17.80
2018-08-09T05:47:14.466Z,17.80
2018-08-09T05:48:18.090Z,17.90
2018-08-09T05:49:21.823Z,17.90
2018-08-09T05:50:25.459Z,18.00
2018-08-09T05:51:29.110Z,18.00
2018-08-09T05:52:32.999Z,18.10
2018-08-09T05:53:36.587Z,18.20
2018-08-09T05:54:40.117Z,18.20
2018-08-09T05:55:43.842Z,18.30
2018-08-09T05:56:47.498Z,18.30
2018-08-09T05:57:51.221Z,18.40
2018-08-09T05:58:54.901Z,18.40
2018-08-09T05:59:58.619Z,18.50
2018-08-09T06:01:02.373Z,18.50
2018-08-09T06:02:06.347Z,18.50
2018-08-09T06:03:10.237Z,18.50
2018-08-09T06:04:13.993Z,18.50
2018-08-09T06:05:17.685Z,18.60
2018-08-09T06:06:21.380Z,18.60
2018-08-09T06:07:24.989Z,18.60
2018-08-09T06:08:28.663Z,18.70
2018-08-09T06:09:32.298Z,18.80
2018-08-09T06:10:35.934Z,18.90
2018-08-09T06:11:39.542Z,18.90
2018-08-09T06:12:43.156Z,19.00
2018-08-09T06:13:46.735Z,19.00
2018-08-09T06:14:50.433Z,19.10
2018-08-09T06:15:54.016Z,19.10
2018-08-09T06:16:57.646Z,19.20
2018-08-09T06:18:01.187Z,19.20
2018-08-09T06:19:05.556Z,19.20
2018-08-09T06:20:09.558Z,19.20
2018-08-09T06:21:13.722Z,19.30
2018-08-09T06:22:17.348Z,19.30
2018-08-09T06:23:21.007Z,19.30
2018-08-09T06:24:24.764Z,19.40
2018-08-09T06:25:28.405Z,19.40
2018-08-09T06:26:32.091Z,19.40
2018-08-09T06:27:35.857Z,19.40
2018-08-09T06:28:39.597Z,19.40
2018-08-09T06:29:43.139Z,19.40
2018-08-09T06:30:46.868Z,19.30
2018-08-09T06:31:50.420Z,19.30
2018-08-09T06:32:54.027Z,19.30
2018-08-09T06:33:57.636Z,19.30
2018-08-09T06:35:01.368Z,19.30
2018-08-09T06:36:05.217Z,19.20
2018-08-09T06:37:08.901Z,19.20
2018-08-09T06:38:12.717Z,19.20
2018-08-09T06:39:16.323Z,19.20
2018-08-09T06:40:19.988Z,19.10
2018-08-09T06:41:23.603Z,19.20
2018-08-09T06:42:27.234Z,19.20
2018-08-09T06:43:30.993Z,19.20
2018-08-09T06:44:34.524Z,19.40
2018-08-09T06:45:38.155Z,19.50
2018-08-09T06:46:41.853Z,19.60
2018-08-09T06:47:45.568Z,19.80
2018-08-09T06:48:49.196Z,19.80
2018-08-09T06:49:52.840Z,19.90
2018-08-09T06:50:56.404Z,19.90
2018-08-09T06:52:00.356Z,19.80
2018-08-09T06:53:03.978Z,19.80
2018-08-09T06:54:07.610Z,19.70
2018-08-09T06:55:11.331Z,19.70
2018-08-09T06:56:14.992Z,19.70
2018-08-09T06:57:18.556Z,19.70
2018-08-09T06:58:22.299Z,19.60
2018-08-09T06:59:25.850Z,19.60
2018-08-09T07:00:29.355Z,19.50
2018-08-09T07:01:32.982Z,19.60
2018-08-09T07:02:36.742Z,19.60
2018-08-09T07:03:40.515Z,19.50
2018-08-09T07:04:44.515Z,19.50
2018-08-09T07:05:48.078Z,19.50
2018-08-09T07:06:51.657Z,19.50
2018-08-09T07:07:55.211Z,19.50
2018-08-09T07:08:59.189Z,19.50
2018-08-09T07:10:02.778Z,19.50
2018-08-09T07:11:06.447Z,19.40
2018-08-09T07:12:11.570Z,19.40
2018-08-09T07:13:15.272Z,19.40
2018-08-09T07:14:19.077Z,19.40
2018-08-09T07:15:22.722Z,19.30
2018-08-09T07:16:26.443Z,19.40
2018-08-09T07:17:30.124Z,19.30
2018-08-09T07:18:33.896Z,19.40
2018-08-09T07:19:37.623Z,19.40
2018-08-09T07:20:41.358Z,19.40
2018-08-09T07:21:44.987Z,19.50
2018-08-09T07:22:48.638Z,19.50
2018-08-09T07:23:52.159Z,19.50
2018-08-09T07:24:55.811Z,19.60
2018-08-09T07:25:59.424Z,19.50
2018-08-09T07:27:03.024Z,19.50
2018-08-09T07:28:07.540Z,19.60
2018-08-09T07:29:11.655Z,19.70
2018-08-09T07:30:15.331Z,19.90
2018-08-09T07:31:18.933Z,20.00
2018-08-09T07:32:22.490Z,20.20
2018-08-09T07:33:26.138Z,20.40
2018-08-09T07:34:29.788Z,20.50
2018-08-09T07:35:33.363Z,20.70
2018-08-09T07:36:37.041Z,20.80
2018-08-09T07:37:40.591Z,20.90
2018-08-09T07:38:44.220Z,20.90
2018-08-09T07:39:47.928Z,21.00
2018-08-09T07:40:51.481Z,21.10
2018-08-09T07:41:55.225Z,21.30
2018-08-09T07:42:58.835Z,21.50
2018-08-09T07:44:02.651Z,21.60
2018-08-09T07:45:08.111Z,21.70
2018-08-09T07:46:12.298Z,22.00
2018-08-09T07:47:16.213Z,22.10
2018-08-09T07:48:19.844Z,22.30
2018-08-09T07:49:23.507Z,22.80
2018-08-09T07:50:27.235Z,23.40
2018-08-09T07:51:30.957Z,23.90
2018-08-09T07:52:34.642Z,24.40
2018-08-09T07:53:38.411Z,24.80
2018-08-09T07:54:43.096Z,24.60
2018-08-09T07:55:46.679Z,24.50
2018-08-09T07:56:50.285Z,24.10
2018-08-09T07:57:53.937Z,23.90
2018-08-09T07:58:57.626Z,23.90
2018-08-09T08:00:01.297Z,23.60
2018-08-09T08:01:04.904Z,23.40
2018-08-09T08:02:08.599Z,23.20
2018-08-09T08:03:13.108Z,23.10
2018-08-09T08:04:16.921Z,22.90
2018-08-09T08:05:20.557Z,22.80
2018-08-09T08:06:24.170Z,22.60
2018-08-09T08:07:28.176Z,22.60
2018-08-09T08:08:32.159Z,22.50
2018-08-09T08:09:36.666Z,22.50
2018-08-09T08:10:41.623Z,22.40
2018-08-09T08:11:46.582Z,22.30
2018-08-09T08:12:50.903Z,22.20
2018-08-09T08:13:56.211Z,22.10
2018-08-09T08:15:00.658Z,22.10
2018-08-09T08:16:04.741Z,22.00
2018-08-09T08:17:09.241Z,22.00
2018-08-09T08:18:13.387Z,21.90
2018-08-09T08:19:17.300Z,21.80
2018-08-09T08:20:21.500Z,21.70
2018-08-09T08:21:26.004Z,21.70
2018-08-09T08:22:29.671Z,21.70
2018-08-09T08:23:33.298Z,21.70
2018-08-09T08:24:37.543Z,21.80
2018-08-09T08:25:41.249Z,22.00
2018-08-09T08:26:45.604Z,22.10
2018-08-09T08:27:49.352Z,22.20
2018-08-09T08:28:53.904Z,22.40
2018-08-09T08:29:58.645Z,22.50
2018-08-09T08:31:02.240Z,22.70
2018-08-09T08:32:05.865Z,22.80
2018-08-09T08:33:09.582Z,23.00
2018-08-09T08:34:13.250Z,23.10
2018-08-09T08:35:17.538Z,23.30
2018-08-09T08:36:21.420Z,23.60
2018-08-09T08:37:24.949Z,24.10
2018-08-09T08:38:29.204Z,24.40
2018-08-09T08:39:33.100Z,24.80
2018-08-09T08:40:36.795Z,25.20
2018-08-09T08:41:41.347Z,25.60
2018-08-09T08:42:44.951Z,25.70
2018-08-09T08:43:48.505Z,25.60
2018-08-09T08:44:52.124Z,25.80
2018-08-09T08:45:56.251Z,25.80
2018-08-09T08:46:59.957Z,25.90
2018-08-09T08:48:04.081Z,26.40
2018-08-09T08:49:08.153Z,26.50
2018-08-09T08:50:13.559Z,26.60
2018-08-09T08:51:17.347Z,26.60
2018-08-09T08:52:21.338Z,26.70
2018-08-09T08:53:25.906Z,27.00
2018-08-09T08:54:30.232Z,27.10
2018-08-09T08:55:34.345Z,26.80
2018-08-09T08:56:38.149Z,26.40
2018-08-09T08:57:41.799Z,25.90
2018-08-09T08:58:45.929Z,25.60
2018-08-09T08:59:49.563Z,25.40
2018-08-09T09:00:53.104Z,25.30
2018-08-09T09:01:56.673Z,25.30
2018-08-09T09:03:00.240Z,25.20
2018-08-09T09:04:04.366Z,25.10
2018-08-09T09:05:10.780Z,25.10
2018-08-09T09:06:14.508Z,25.20
2018-08-09T09:07:19.011Z,25.10
2018-08-09T09:08:23.173Z,24.90
2018-08-09T09:09:26.760Z,24.70
2018-08-09T09:10:30.979Z,24.50
2018-08-09T09:11:34.922Z,24.60
2018-08-09T09:12:38.937Z,24.60
2018-08-09T09:13:42.727Z,24.70
2018-08-09T09:14:46.938Z,24.80
2018-08-09T09:15:51.556Z,24.80
2018-08-09T09:16:55.532Z,24.80
2018-08-09T09:17:59.436Z,24.80
2018-08-09T09:19:03.359Z,24.90
2018-08-09T09:20:10.359Z,24.80
2018-08-09T09:21:14.358Z,24.70
2018-08-09T09:22:18.206Z,24.60
2018-08-09T09:23:22.238Z,24.40
2018-08-09T09:24:25.921Z,24.30
2018-08-09T09:25:29.546Z,24.20
2018-08-09T09:26:34.546Z,24.20
2018-08-09T09:27:38.646Z,24.20
2018-08-09T09:28:42.227Z,24.30
2018-08-09T09:29:45.796Z,24.40
2018-08-09T09:30:49.404Z,24.40
2018-08-09T09:31:52.981Z,24.70
2018-08-09T09:32:57.562Z,25.00
2018-08-09T09:34:01.777Z,25.40
2018-08-09T09:35:06.026Z,25.90
2018-08-09T09:36:11.136Z,26.30
2018-08-09T09:37:15.185Z,26.70
2018-08-09T09:38:19.221Z,27.00
2018-08-09T09:39:22.767Z,27.50
2018-08-09T09:40:26.918Z,27.80
2018-08-09T09:41:31.034Z,28.00
2018-08-09T09:42:36.254Z,27.90
2018-08-09T09:43:40.462Z,28.00
2018-08-09T09:44:44.436Z,28.00
2018-08-09T09:45:48.398Z,28.00
2018-08-09T09:46:52.059Z,27.70
2018-08-09T09:47:55.769Z,27.90
2018-08-09T09:48:59.354Z,27.80
2018-08-09T09:50:03.113Z,27.50
2018-08-09T09:51:06.845Z,27.60
2018-08-09T09:52:10.563Z,27.60
2018-08-09T09:53:15.430Z,27.60
2018-08-09T09:54:19.847Z,27.50
2018-08-09T09:55:24.217Z,27.70
2018-08-09T09:56:28.077Z,27.70
2018-08-09T09:57:32.025Z,27.50
2018-08-09T09:58:36.211Z,27.20
2018-08-09T09:59:40.155Z,27.00
2018-08-09T10:00:49.043Z,26.80
2018-08-09T10:01:52.641Z,26.70
2018-08-09T10:02:56.294Z,26.90
2018-08-09T10:04:00.943Z,26.80
2018-08-09T10:05:05.146Z,26.70
2018-08-09T10:06:10.359Z,26.70
2018-08-09T10:07:15.188Z,26.80
2018-08-09T10:08:18.763Z,26.70
2018-08-09T10:09:22.438Z,26.60
2018-08-09T10:10:26.144Z,26.70
2018-08-09T10:11:30.239Z,26.90
2018-08-09T10:12:33.787Z,26.90
2018-08-09T10:13:37.407Z,27.00
2018-08-09T10:14:41.214Z,27.20
2018-08-09T10:15:44.862Z,27.40
2018-08-09T10:16:48.486Z,27.40
2018-08-09T10:17:52.143Z,27.10
2018-08-09T10:18:55.720Z,27.00
2018-08-09T10:19:59.287Z,26.80
2018-08-09T10:21:03.038Z,26.80
2018-08-09T10:22:07.023Z,26.80
2018-08-09T10:23:11.432Z,26.80
2018-08-09T10:24:15.019Z,26.60
2018-08-09T10:25:18.632Z,26.60
2018-08-09T10:26:22.250Z,26.60
2018-08-09T10:27:25.868Z,26.60
2018-08-09T10:28:29.491Z,26.60
2018-08-09T10:29:33.148Z,26.60
2018-08-09T10:30:36.749Z,26.60
2018-08-09T10:31:40.356Z,26.50
2018-08-09T10:32:43.920Z,26.40
2018-08-09T10:33:47.488Z,26.40
2018-08-09T10:34:51.077Z,26.30
2018-08-09T10:35:54.696Z,26.20
2018-08-09T10:36:58.263Z,26.20
2018-08-09T10:38:01.784Z,26.10
2018-08-09T10:39:09.235Z,26.00
2018-08-09T10:40:13.081Z,25.90
2018-08-09T10:41:16.710Z,25.90
2018-08-09T10:42:20.350Z,25.80
2018-08-09T10:43:23.923Z,25.80
2018-08-09T10:44:27.441Z,25.90
2018-08-09T10:45:31.050Z,26.00
2018-08-09T10:46:34.690Z,26.00
2018-08-09T10:47:38.532Z,26.10
2018-08-09T10:48:42.183Z,26.10
2018-08-09T10:49:46.331Z,26.10
2018-08-09T10:50:49.906Z,26.20
2018-08-09T10:51:53.631Z,26.20
2018-08-09T10:52:57.210Z,26.40
2018-08-09T10:54:00.753Z,26.40
2018-08-09T10:55:07.622Z,26.40
2018-08-09T10:57:14.727Z,26.40
2018-08-09T10:58:18.495Z,26.50
2018-08-09T10:59:22.264Z,26.70
2018-08-09T11:00:25.968Z,26.70
2018-08-09T11:01:29.606Z,26.70
2018-08-09T11:02:33.642Z,26.70
2018-08-09T11:03:37.234Z,26.70
2018-08-09T11:04:40.890Z,26.60
2018-08-09T11:05:44.450Z,26.60
2018-08-09T11:06:48.128Z,26.60
2018-08-09T11:07:51.707Z,26.70
2018-08-09T11:08:55.402Z,26.80
2018-08-09T11:09:58.949Z,26.90
2018-08-09T11:11:06.699Z,26.80
2018-08-09T11:12:10.400Z,26.80
2018-08-09T11:13:14.078Z,27.00
2018-08-09T11:14:17.656Z,27.10
2018-08-09T11:15:21.255Z,27.30
2018-08-09T11:16:24.809Z,27.40
2018-08-09T11:17:28.407Z,27.50
2018-08-09T11:18:31.984Z,27.60
2018-08-09T11:19:35.654Z,27.60
2018-08-09T11:20:39.376Z,27.60
2018-08-09T11:21:42.961Z,27.70
2018-08-09T11:22:46.579Z,27.70
2018-08-09T11:23:50.219Z,27.70
2018-08-09T11:24:53.752Z,27.60
2018-08-09T11:25:58.160Z,27.50
2018-08-09T11:27:01.774Z,27.30
2018-08-09T11:28:05.343Z,27.20
2018-08-09T11:29:08.925Z,27.10
2018-08-09T11:30:13.346Z,27.20
2018-08-09T11:31:16.851Z,27.30
2018-08-09T11:32:20.489Z,27.40
2018-08-09T11:33:24.813Z,27.50
2018-08-09T11:34:28.483Z,27.40
2018-08-09T11:35:32.043Z,27.40
2018-08-09T11:36:35.635Z,27.50
2018-08-09T11:37:39.205Z,27.40
2018-08-09T11:38:42.852Z,27.40
2018-08-09T11:39:46.482Z,27.50
2018-08-09T11:40:50.106Z,27.50
2018-08-09T11:41:53.664Z,27.50
2018-08-09T11:42:57.241Z,27.60
2018-08-09T11:44:00.795Z,27.60
2018-08-09T11:45:04.905Z,27.40
2018-08-09T11:46:08.528Z,27.30
2018-08-09T11:47:13.194Z,27.20
2018-08-09T11:48:16.882Z,27.20
2018-08-09T11:49:20.479Z,27.20
2018-08-09T11:50:24.050Z,27.20
2018-08-09T11:51:27.674Z,27.20
2018-08-09T11:52:31.322Z,27.30
2018-08-09T11:53:35.176Z,27.30
2018-08-09T11:54:38.839Z,27.20
2018-08-09T11:55:42.406Z,27.20
2018-08-09T11:56:46.103Z,27.20
2018-08-09T11:57:49.632Z,27.20
2018-08-09T11:58:53.300Z,27.30
2018-08-09T11:59:56.940Z,27.40
2018-08-09T12:01:00.507Z,27.40
2018-08-09T12:02:04.155Z,27.50
2018-08-09T12:03:07.723Z,27.60
2018-08-09T12:04:11.361Z,27.60
2018-08-09T12:05:14.972Z,27.70
2018-08-09T12:06:18.622Z,27.80
2018-08-09T12:07:22.399Z,27.90
2018-08-09T12:08:25.989Z,27.90
2018-08-09T12:09:29.732Z,28.00
2018-08-09T12:10:33.407Z,28.00
2018-08-09T12:11:37.720Z,28.10
2018-08-09T12:12:41.522Z,28.20
2018-08-09T12:13:45.127Z,28.20
2018-08-09T12:14:48.849Z,28.30
2018-08-09T12:15:52.627Z,28.30
2018-08-09T12:16:56.306Z,28.10
2018-08-09T12:17:59.972Z,28.10
2018-08-09T12:19:03.953Z,28.10
2018-08-09T12:20:08.041Z,28.20
2018-08-09T12:21:11.940Z,28.30
2018-08-09T12:22:16.038Z,28.30
2018-08-09T12:23:19.714Z,28.30
2018-08-09T12:24:23.470Z,28.30
2018-08-09T12:25:27.185Z,28.20
2018-08-09T12:26:31.605Z,28.10
2018-08-09T12:27:35.625Z,28.20
2018-08-09T12:28:39.428Z,28.40
2018-08-09T12:29:43.093Z,28.60
2018-08-09T12:30:46.773Z,28.60
2018-08-09T12:31:50.475Z,28.70
2018-08-09T12:32:54.458Z,28.70
2018-08-09T12:33:58.303Z,28.80
2018-08-09T12:35:01.881Z,28.90
2018-08-09T12:36:06.121Z,28.80
2018-08-09T12:37:09.930Z,28.80
2018-08-09T12:38:13.848Z,28.80
2018-08-09T12:39:17.438Z,28.80
2018-08-09T12:40:21.027Z,28.80
2018-08-09T12:41:25.086Z,28.80
2018-08-09T12:42:28.737Z,28.70
2018-08-09T12:43:32.391Z,28.60
2018-08-09T12:44:36.053Z,28.50
2018-08-09T12:45:39.901Z,28.30
2018-08-09T12:46:43.630Z,28.10
2018-08-09T12:47:47.475Z,28.10
2018-08-09T12:48:51.154Z,28.10
2018-08-09T12:49:54.785Z,28.00
2018-08-09T12:50:58.519Z,28.00
2018-08-09T12:52:02.246Z,28.00
2018-08-09T12:53:06.059Z,28.10
2018-08-09T12:54:09.979Z,28.20
2018-08-09T12:55:14.611Z,28.40
2018-08-09T12:56:18.253Z,28.60
2018-08-09T12:57:22.107Z,28.70
2018-08-09T12:58:25.819Z,28.70
2018-08-09T12:59:29.494Z,28.80
2018-08-09T13:00:33.196Z,28.90
2018-08-09T13:01:36.861Z,29.00
2018-08-09T13:02:43.238Z,29.00
2018-08-09T13:03:47.019Z,29.10
2018-08-09T13:04:50.588Z,29.10
2018-08-09T13:05:54.202Z,29.00
2018-08-09T13:06:57.786Z,29.00
2018-08-09T13:08:01.499Z,29.00
2018-08-09T13:09:10.864Z,29.00
2018-08-09T13:10:15.265Z,29.00
2018-08-09T13:11:22.200Z,29.10
2018-08-09T13:12:25.859Z,29.10
2018-08-09T13:13:29.462Z,29.20
2018-08-09T13:14:33.193Z,29.30
2018-08-09T13:15:36.838Z,29.30
2018-08-09T13:16:40.823Z,29.40
2018-08-09T13:17:45.497Z,29.30
2018-08-09T13:18:49.078Z,29.10
2018-08-09T13:19:52.911Z,29.10
2018-08-09T13:20:56.577Z,28.90
2018-08-09T13:22:00.206Z,28.90
2018-08-09T13:23:04.043Z,28.90
2018-08-09T13:24:07.640Z,28.90
2018-08-09T13:25:11.443Z,28.90
2018-08-09T13:26:15.100Z,28.90
2018-08-09T13:27:18.764Z,28.90
2018-08-09T13:28:22.963Z,28.80
2018-08-09T13:29:26.705Z,28.70
2018-08-09T13:30:30.327Z,28.60
2018-08-09T13:31:34.008Z,28.60
2018-08-09T13:32:37.631Z,28.70
2018-08-09T13:33:41.295Z,28.70
2018-08-09T13:34:44.852Z,28.60
2018-08-09T13:35:48.471Z,28.40
2018-08-09T13:36:52.184Z,28.30
2018-08-09T13:37:55.861Z,28.20
2018-08-09T13:38:59.543Z,28.20
2018-08-09T13:40:03.420Z,28.30
2018-08-09T13:41:07.069Z,28.40
2018-08-09T13:42:10.777Z,28.60
2018-08-09T13:43:14.520Z,28.70